Avery, ID (83802)

2:54 PM PST on February 12, 2016 (GMT -0800)
Coeur D'Alene | | Change Station
CLOSE
Current Station
Airport
Location: Coeur d'Alene,
Elevation: 2320 ft
Nearby Weather Stations

Elev 2320 ft 47.77 °N, 116.82 °W | Updated 19 minutes ago

Overcast
Overcast
48 °F
Feels Like 48 °F
N
5
Wind Variable Wind from NE

Today
High -- | Low -- °F
--% Chance of Precip.
Yesterday
High -- | Low -- °F
Precip. -- in
Pressure 30.09 in
Visibility 10.0 miles
Clouds Few 6000 ft
Scattered Clouds 7000 ft
Mostly Cloudy 8000 ft
Dew Point 45 °F
Humidity 87%
Rainfall 0.06 in
Snow Depth Not available.
6:53 AM 5:02 PM
Waxing Crescent, 24% visible
METAR KCOE 122235Z AUTO 05004KT 10SM FEW060 SCT070 BKN080 09/07 A3009 RMK AO1
Pressure 30.09 in
Visibility 10.0 miles
Clouds Few 6000 ft
Scattered Clouds 7000 ft
Mostly Cloudy 8000 ft
Dew Point 45 °F
Humidity 87%
Rainfall 0.06 in
Snow Depth Not available.
6:53 AM 5:02 PM
Waxing Crescent, 24% visible
METAR KCOE 122235Z AUTO 05004KT 10SM FEW060 SCT070 BKN080 09/07 A3009 RMK AO1

10-Day Weather Forecast

Almanac

Astronomy

Feb. 12, 2016 Rise Set
Actual Time
Civil Twilight
Nautical Twilight
Astronomical Twilight
Moon
Length of Visible Light
Length of Day
Tomorrow will be .
, % of the Moon is Illuminated

Today's Extremes

State Highs State Lows

Community

WunderPhotos

Upload Photos

1,892,424 photos uploaded!

WunderBlog® & News

Nearby

Air Quality

  Air Quality AQ Index Pollutant
Not available.

Snow Depth

Station Depth Elevation

Earthquake Activity

City Distance Mag. Time & Date
Minimum magnitude displayed is 2.5.

Coastal Water Temperatures

Place Temperature

Stations

Nearby Weather Stations

Station Location Temp. Windchill Dew Point Humidity Wind Precip. Elev Updated Type
                   

Watches & Warnings

There are currently no watches in effect.